Time;durP1;ratioP1;P1;durP2;ratioP2;P2;SDS_P1;SDS_P2;PMS_P1;PMS_P2;Temp;Humidity;BMP_temperature;BMP_pressure;BME280_temperature;BME280_humidity;BME280_pressure;Samples;Min_cycle;Max_cycle;Signal;HPM_P1;HPM_P2
2022/12/06 00:00:50;;;;;;;53.57;29.70;;;0.50;99.90;;;;;;5079710;28;20201;-71
2022/12/06 00:03:16;;;;;;;54.07;30.27;;;0.50;99.90;;;;;;5079959;28;20197;-72
2022/12/06 00:05:43;;;;;;;52.47;29.47;;;0.60;99.90;;;;;;5080712;28;20201;-71
2022/12/06 00:08:10;;;;;;;51.00;28.60;;;0.60;99.90;;;;;;5076335;28;20235;-71
2022/12/06 00:10:37;;;;;;;53.37;29.63;;;0.60;99.90;;;;;;5074174;28;20201;-71
2022/12/06 00:13:04;;;;;;;53.83;28.07;;;0.70;99.90;;;;;;5073544;28;20200;-71
2022/12/06 00:15:35;;;;;;;53.97;29.53;;;0.60;99.90;;;;;;5073560;28;20193;-70
2022/12/06 00:18:02;;;;;;;55.20;28.97;;;0.60;99.90;;;;;;5073677;28;20254;-70
2022/12/06 00:20:29;;;;;;;49.07;28.93;;;0.60;99.90;;;;;;5074032;28;20193;-71
2022/12/06 00:22:56;;;;;;;46.33;26.87;;;0.70;99.90;;;;;;5072979;28;20572;-71
2022/12/06 00:25:22;;;;;;;49.03;28.40;;;0.90;99.90;;;;;;5074763;28;20687;-71
2022/12/06 00:27:50;;;;;;;47.40;27.50;;;1.00;99.90;;;;;;5076482;28;20212;-70
2022/12/06 00:30:17;;;;;;;54.37;28.67;;;1.20;99.90;;;;;;5076371;28;20197;-71
2022/12/06 00:32:45;;;;;;;50.47;29.93;;;1.20;99.90;;;;;;5076350;28;20660;-70
2022/12/06 00:35:12;;;;;;;48.47;28.40;;;1.20;99.90;;;;;;5076614;28;20560;-71
2022/12/06 00:37:39;;;;;;;49.03;26.80;;;1.30;99.90;;;;;;5077145;28;20208;-70
2022/12/06 00:40:07;;;;;;;47.37;28.03;;;1.30;99.90;;;;;;5076283;28;20208;-70
2022/12/06 00:42:33;;;;;;;52.60;29.87;;;1.30;99.90;;;;;;5076085;28;20197;-70
2022/12/06 00:45:00;;;;;;;55.23;30.87;;;1.30;99.90;;;;;;5076089;28;20193;-70
2022/12/06 00:47:27;;;;;;;48.60;29.80;;;1.30;99.90;;;;;;5075927;28;20236;-70
2022/12/06 00:49:55;;;;;;;47.70;28.57;;;1.30;99.90;;;;;;5075892;28;20197;-70
2022/12/06 00:52:22;;;;;;;50.00;28.83;;;1.30;99.90;;;;;;5075902;28;20209;-70
2022/12/06 00:54:48;;;;;;;49.07;27.87;;;1.20;99.90;;;;;;5075732;28;20197;-70
2022/12/06 00:57:16;;;;;;;47.17;27.57;;;1.20;99.90;;;;;;5075830;28;20209;-70
2022/12/06 00:59:42;;;;;;;50.07;28.13;;;1.20;99.90;;;;;;5075785;28;20208;-70
2022/12/06 01:02:09;;;;;;;44.47;28.63;;;1.30;99.90;;;;;;5076006;28;20462;-71
2022/12/06 01:04:36;;;;;;;49.33;28.27;;;1.30;99.90;;;;;;5076045;28;20202;-70
2022/12/06 01:07:04;;;;;;;46.83;29.00;;;1.30;99.90;;;;;;5078661;28;20232;-71
2022/12/06 01:09:31;;;;;;;42.27;26.17;;;1.30;99.90;;;;;;5080680;28;20251;-72
2022/12/06 01:11:58;;;;;;;42.40;25.70;;;1.30;99.90;;;;;;5081210;28;20656;-71
2022/12/06 01:14:25;;;;;;;43.73;26.77;;;1.30;99.90;;;;;;5081884;28;20197;-72
2022/12/06 01:16:51;;;;;;;43.43;25.97;;;1.40;99.90;;;;;;5082672;28;20197;-73
2022/12/06 01:19:18;;;;;;;41.20;25.33;;;1.30;99.90;;;;;;5083034;28;20255;-71
2022/12/06 01:21:45;;;;;;;44.60;26.27;;;1.30;99.90;;;;;;5080920;28;20263;-71
2022/12/06 01:24:13;;;;;;;46.60;27.23;;;1.30;99.90;;;;;;5083054;28;20599;-73
2022/12/06 01:26:39;;;;;;;42.67;26.33;;;1.40;99.90;;;;;;5083365;28;20201;-72
2022/12/06 01:29:06;;;;;;;41.13;25.13;;;1.40;99.90;;;;;;5082875;28;20786;-76
2022/12/06 01:31:33;;;;;;;38.80;24.43;;;1.40;99.90;;;;;;5078254;28;20197;-70
2022/12/06 01:34:00;;;;;;;41.53;25.93;;;1.40;99.90;;;;;;5075201;28;20216;-71
2022/12/06 01:36:27;;;;;;;38.10;24.03;;;1.40;99.90;;;;;;5075002;28;20204;-71
2022/12/06 01:38:56;;;;;;;39.23;24.17;;;1.40;99.90;;;;;;5075212;28;20645;-71
2022/12/06 01:41:26;;;;;;;42.27;24.53;;;1.40;99.90;;;;;;5075129;28;20197;-71
2022/12/06 01:43:54;;;;;;;38.20;23.80;;;1.50;99.90;;;;;;5075443;28;20201;-71
2022/12/06 01:46:27;;;;;;;38.30;23.63;;;1.40;99.90;;;;;;5075353;28;20208;-71
2022/12/06 01:49:05;;;;;;;37.83;23.00;;;1.40;99.90;;;;;;5075142;28;20228;-72
2022/12/06 01:51:32;;;;;;;38.10;24.40;;;1.40;99.90;;;;;;5074909;28;20200;-71
2022/12/06 01:54:01;;;;;;;35.27;23.30;;;1.50;99.90;;;;;;5074528;28;20262;-71
2022/12/06 01:56:30;;;;;;;36.20;22.53;;;1.50;99.90;;;;;;5074905;28;20198;-70
2022/12/06 01:58:58;;;;;;;36.30;23.47;;;1.50;99.90;;;;;;5074697;28;20449;-70
2022/12/06 02:01:26;;;;;;;36.73;23.83;;;1.60;99.90;;;;;;5074468;28;20594;-71
2022/12/06 02:03:55;;;;;;;32.63;22.43;;;1.60;99.90;;;;;;5074391;28;20262;-71
2022/12/06 02:06:22;;;;;;;37.77;23.97;;;1.70;99.90;;;;;;5074074;28;20246;-70
2022/12/06 02:08:50;;;;;;;33.10;23.83;;;1.70;99.90;;;;;;5074441;28;20228;-71
2022/12/06 02:11:17;;;;;;;34.20;23.83;;;1.70;99.90;;;;;;5074264;28;20660;-70
2022/12/06 02:13:45;;;;;;;34.00;23.87;;;1.80;99.90;;;;;;5074892;28;20243;-71
2022/12/06 02:16:23;;;;;;;37.20;24.77;;;1.80;99.90;;;;;;5074069;28;20197;-71
2022/12/06 02:18:54;;;;;;;35.63;24.13;;;1.80;99.90;;;;;;5074231;28;20541;-71
2022/12/06 02:21:30;;;;;;;33.67;23.33;;;1.80;99.90;;;;;;5074302;28;20201;-70
2022/12/06 02:24:31;;;;;;;38.17;25.23;;;1.80;99.90;;;;;;5074151;28;20197;-70
2022/12/06 02:27:16;;;;;;;35.03;24.60;;;1.80;99.90;;;;;;5074043;28;20250;-70
2022/12/06 02:30:07;;;;;;;33.80;24.33;;;1.80;99.90;;;;;;5074040;28;20684;-71
2022/12/06 02:32:40;;;;;;;37.43;23.93;;;1.80;99.90;;;;;;5074112;28;20592;-71
2022/12/06 02:35:12;;;;;;;32.93;22.13;;;1.70;99.90;;;;;;5073805;28;20254;-71
2022/12/06 02:37:46;;;;;;;33.23;23.93;;;1.70;99.90;;;;;;5073808;28;20660;-71
2022/12/06 02:40:19;;;;;;;33.20;23.53;;;1.70;99.90;;;;;;5074190;28;20200;-70
2022/12/06 02:42:49;;;;;;;34.37;22.40;;;1.60;99.90;;;;;;5073934;28;20250;-70
2022/12/06 02:45:20;;;;;;;32.10;23.47;;;1.70;99.90;;;;;;5073674;28;20208;-70
2022/12/06 02:47:51;;;;;;;30.63;23.10;;;1.60;99.90;;;;;;5073382;28;20209;-71
2022/12/06 02:50:22;;;;;;;29.57;22.63;;;1.70;99.90;;;;;;5072964;28;20258;-70
2022/12/06 02:52:53;;;;;;;34.80;24.03;;;1.70;99.90;;;;;;5073812;28;20533;-69
2022/12/06 02:55:21;;;;;;;31.10;23.23;;;1.70;99.90;;;;;;5073628;28;20258;-70
2022/12/06 02:57:51;;;;;;;30.77;23.30;;;1.70;99.90;;;;;;5073503;28;20200;-70
2022/12/06 03:00:34;;;;;;;35.93;24.70;;;1.70;99.90;;;;;;5073577;28;20590;-70
2022/12/06 03:03:28;;;;;;;32.57;23.23;;;1.80;99.90;;;;;;5073651;28;20224;-70
2022/12/06 03:06:12;;;;;;;34.60;23.67;;;1.80;99.90;;;;;;5063132;28;20200;-70
2022/12/06 03:08:48;;;;;;;30.97;22.27;;;1.80;99.90;;;;;;5073827;28;20216;-70
2022/12/06 03:11:15;;;;;;;31.93;22.77;;;1.80;99.90;;;;;;5073624;28;20604;-69
2022/12/06 03:13:52;;;;;;;33.60;24.17;;;1.80;99.90;;;;;;5073385;28;20193;-70
2022/12/06 03:16:26;;;;;;;31.73;22.30;;;1.80;99.90;;;;;;5073388;28;20201;-70
2022/12/06 03:18:59;;;;;;;28.87;21.00;;;1.80;99.90;;;;;;5073187;28;20250;-70
2022/12/06 03:21:32;;;;;;;32.87;23.43;;;1.80;99.90;;;;;;5073136;28;20201;-70
2022/12/06 03:23:59;;;;;;;30.33;22.13;;;1.80;99.90;;;;;;5073348;28;20243;-70
2022/12/06 03:26:30;;;;;;;31.50;22.67;;;1.80;99.90;;;;;;5073214;28;20323;-70
2022/12/06 03:29:00;;;;;;;31.93;23.07;;;1.90;99.90;;;;;;5073069;28;20220;-70
2022/12/06 03:31:29;;;;;;;29.33;21.43;;;1.90;99.90;;;;;;5073083;28;20197;-70
2022/12/06 03:34:01;;;;;;;29.50;21.83;;;1.90;99.90;;;;;;5072909;28;20652;-70
2022/12/06 03:36:29;;;;;;;29.40;22.47;;;1.90;99.90;;;;;;5073192;28;20197;-69
2022/12/06 03:38:59;;;;;;;26.97;19.83;;;1.90;99.90;;;;;;5073075;28;20234;-70
2022/12/06 03:41:31;;;;;;;28.60;20.80;;;1.90;99.90;;;;;;5073101;28;20243;-70
2022/12/06 03:43:59;;;;;;;31.87;20.93;;;1.90;99.90;;;;;;5072960;28;20196;-70
2022/12/06 03:46:29;;;;;;;28.43;20.37;;;1.90;99.90;;;;;;5072795;28;20196;-70
2022/12/06 03:49:01;;;;;;;28.70;20.50;;;2.00;99.90;;;;;;5072825;28;20688;-70
2022/12/06 03:51:30;;;;;;;27.23;20.77;;;2.00;99.90;;;;;;5072995;28;20205;-70
2022/12/06 03:53:59;;;;;;;26.90;21.23;;;2.00;99.90;;;;;;5073011;28;20606;-70
2022/12/06 03:56:26;;;;;;;29.33;21.00;;;2.00;99.90;;;;;;5072873;28;20242;-70
2022/12/06 03:58:53;;;;;;;27.43;20.57;;;2.10;99.90;;;;;;5072707;28;20193;-70
2022/12/06 04:01:20;;;;;;;25.40;19.97;;;2.10;99.90;;;;;;5076181;28;20201;-70
2022/12/06 04:03:47;;;;;;;28.60;20.37;;;2.10;99.90;;;;;;5076946;28;20201;-70
2022/12/06 04:06:15;;;;;;;26.63;20.20;;;2.10;99.90;;;;;;5076601;28;20201;-70
2022/12/06 04:08:41;;;;;;;27.57;19.10;;;2.10;99.90;;;;;;5076557;28;20224;-70
2022/12/06 04:11:08;;;;;;;26.97;19.47;;;2.10;99.90;;;;;;5076534;28;20692;-70
2022/12/06 04:13:35;;;;;;;26.90;19.63;;;2.10;99.90;;;;;;5076316;28;20205;-70
2022/12/06 04:16:02;;;;;;;27.10;19.67;;;2.20;99.90;;;;;;5076335;28;20710;-70
2022/12/06 04:18:28;;;;;;;23.97;18.60;;;2.10;99.90;;;;;;5076520;28;20248;-70
2022/12/06 04:23:45;;;;;;;24.27;18.70;;;2.20;99.90;;;;;;5076394;28;20204;-71
2022/12/06 04:26:14;;;;;;;24.90;18.67;;;2.20;99.90;;;;;;5076679;28;20201;-70
2022/12/06 04:39:41;;;;;;;25.60;18.27;;;2.20;99.90;;;;;;5076097;28;20248;-70
2022/12/06 04:44:52;;;;;;;23.97;17.57;;;2.20;99.90;;;;;;5075995;28;20200;-70
2022/12/06 04:47:19;;;;;;;23.90;18.83;;;2.30;99.90;;;;;;5076275;28;20200;-70
2022/12/06 04:49:45;;;;;;;22.93;17.47;;;2.30;99.90;;;;;;5076172;28;20230;-70
2022/12/06 04:52:12;;;;;;;24.37;17.90;;;2.30;99.90;;;;;;5075875;28;20197;-71
2022/12/06 04:54:40;;;;;;;26.73;19.37;;;2.30;99.90;;;;;;5075907;28;20251;-70
2022/12/06 04:57:09;;;;;;;24.20;18.63;;;2.30;99.90;;;;;;5075868;28;20599;-70
2022/12/06 04:59:37;;;;;;;25.87;18.60;;;2.40;99.90;;;;;;5075803;28;20196;-70
2022/12/06 05:02:03;;;;;;;22.73;17.30;;;2.40;99.90;;;;;;5075977;28;20195;-70
2022/12/06 05:04:30;;;;;;;25.13;18.43;;;2.40;99.90;;;;;;5075806;28;20251;-70
2022/12/06 05:06:57;;;;;;;24.33;19.00;;;2.50;99.90;;;;;;5075457;28;20253;-70
2022/12/06 05:09:24;;;;;;;25.40;18.83;;;2.50;99.90;;;;;;5075783;28;20695;-70
2022/12/06 05:11:52;;;;;;;22.77;18.00;;;2.50;99.90;;;;;;5074739;28;20198;-71
2022/12/06 05:14:20;;;;;;;23.37;18.07;;;2.60;99.90;;;;;;5075668;28;20201;-71
2022/12/06 05:16:47;;;;;;;23.60;18.77;;;2.60;99.90;;;;;;5075561;28;20204;-71
2022/12/06 05:19:14;;;;;;;23.40;18.07;;;2.60;99.90;;;;;;5075425;28;20197;-71
2022/12/06 05:21:41;;;;;;;22.27;17.73;;;2.60;99.90;;;;;;5075489;28;20198;-71
2022/12/06 05:24:08;;;;;;;24.50;19.10;;;2.60;99.90;;;;;;5079119;28;20201;-71
2022/12/06 05:26:35;;;;;;;24.00;18.47;;;2.60;99.90;;;;;;5082646;28;20201;-75
2022/12/06 05:29:03;;;;;;;25.60;19.17;;;2.70;99.90;;;;;;5083284;28;20244;-72
2022/12/06 05:31:30;;;;;;;25.33;18.80;;;2.60;99.90;;;;;;5082536;28;20219;-71
2022/12/06 05:33:57;;;;;;;23.23;17.50;;;2.70;99.90;;;;;;5080347;28;20672;-72
2022/12/06 05:36:25;;;;;;;24.93;19.00;;;2.60;99.90;;;;;;5077440;28;20194;-71
2022/12/06 05:38:53;;;;;;;25.27;19.27;;;2.60;99.90;;;;;;5075553;28;20266;-70
2022/12/06 05:41:21;;;;;;;22.40;18.43;;;2.60;99.90;;;;;;5075414;28;20269;-70
2022/12/06 05:43:48;;;;;;;22.40;17.67;;;2.70;99.90;;;;;;5075247;28;20266;-70
2022/12/06 05:46:17;;;;;;;24.50;18.10;;;2.70;99.90;;;;;;5075201;28;20194;-71
2022/12/06 05:48:43;;;;;;;246.63;33.73;;;2.70;99.90;;;;;;5074691;28;20223;-70
2022/12/06 05:51:10;;;;;;;24.90;19.13;;;2.70;99.90;;;;;;5074774;28;20201;-71
2022/12/06 05:53:37;;;;;;;26.70;19.03;;;2.70;99.90;;;;;;5074942;28;20197;-71
2022/12/06 05:56:05;;;;;;;25.40;18.97;;;2.70;99.90;;;;;;5074783;28;20253;-71
2022/12/06 05:58:32;;;;;;;24.13;18.17;;;2.70;99.90;;;;;;5074575;28;20198;-71
2022/12/06 06:00:59;;;;;;;24.30;17.80;;;2.70;99.90;;;;;;5074473;28;20618;-71
2022/12/06 06:03:27;;;;;;;37.37;27.40;;;2.60;99.90;;;;;;5074387;28;20201;-71
2022/12/06 06:05:57;;;;;;;24.07;19.17;;;2.60;99.90;;;;;;5074420;28;20195;-70
2022/12/06 06:08:24;;;;;;;24.20;18.93;;;2.60;99.90;;;;;;5074249;28;20229;-71
2022/12/06 06:10:51;;;;;;;25.03;18.47;;;2.60;99.90;;;;;;5074312;28;20221;-71
2022/12/06 06:13:17;;;;;;;24.80;18.80;;;2.60;99.90;;;;;;5074203;28;20651;-71
2022/12/06 06:15:44;;;;;;;25.23;20.00;;;2.60;99.90;;;;;;5074228;28;20197;-71
2022/12/06 06:18:11;;;;;;;24.07;17.67;;;2.60;99.90;;;;;;5074238;28;20201;-70
2022/12/06 06:20:39;;;;;;;24.53;18.93;;;2.60;99.90;;;;;;5074043;28;20193;-71
2022/12/06 06:23:05;;;;;;;23.67;18.03;;;2.60;99.90;;;;;;5074037;28;20198;-71
2022/12/06 06:25:32;;;;;;;26.63;18.23;;;2.60;99.90;;;;;;5074057;28;20247;-70
2022/12/06 06:27:58;;;;;;;23.37;18.03;;;2.60;99.90;;;;;;5074085;28;20227;-71
2022/12/06 06:30:25;;;;;;;25.40;18.67;;;2.60;99.90;;;;;;5073899;28;20221;-71
2022/12/06 06:32:52;;;;;;;26.10;18.10;;;2.60;99.90;;;;;;5073891;28;20242;-70
2022/12/06 06:35:18;;;;;;;22.63;18.03;;;2.60;99.90;;;;;;5073706;28;20247;-70
2022/12/06 06:37:47;;;;;;;23.77;18.63;;;2.70;99.90;;;;;;5074221;28;20196;-71
2022/12/06 06:40:13;;;;;;;22.80;17.47;;;2.70;99.90;;;;;;5074111;28;20232;-70
2022/12/06 06:42:40;;;;;;;22.50;18.37;;;2.60;99.90;;;;;;5073993;28;20243;-71
2022/12/06 06:45:08;;;;;;;23.57;18.33;;;2.70;99.90;;;;;;5073921;28;20228;-71
2022/12/06 06:47:34;;;;;;;24.43;18.07;;;2.70;99.90;;;;;;5073849;28;20197;-71
2022/12/06 06:50:01;;;;;;;28.23;21.00;;;2.70;99.90;;;;;;5073889;28;20279;-71
2022/12/06 06:52:28;;;;;;;21.60;16.83;;;2.70;99.90;;;;;;5073706;28;20656;-72
2022/12/06 06:54:56;;;;;;;36.13;27.67;;;2.70;99.90;;;;;;5073863;28;20232;-72
2022/12/06 06:57:23;;;;;;;25.73;19.40;;;2.70;99.90;;;;;;5073726;28;20208;-71
2022/12/06 06:59:49;;;;;;;25.83;20.13;;;2.70;99.90;;;;;;5073659;28;20613;-71
2022/12/06 07:02:16;;;;;;;37.20;25.80;;;2.70;99.90;;;;;;5073392;28;20646;-72
2022/12/06 07:04:44;;;;;;;37.83;25.57;;;2.70;99.90;;;;;;5073594;28;20193;-71
2022/12/06 07:07:11;;;;;;;28.57;19.83;;;2.80;99.90;;;;;;5073397;28;20232;-72
2022/12/06 07:09:38;;;;;;;54.43;37.73;;;2.80;99.90;;;;;;5073496;28;20599;-71
2022/12/06 07:12:06;;;;;;;30.47;22.53;;;2.80;99.90;;;;;;5073589;28;20607;-71
2022/12/06 07:14:33;;;;;;;27.83;20.17;;;2.80;99.90;;;;;;5073422;28;20648;-71
2022/12/06 07:17:00;;;;;;;25.47;18.60;;;2.80;99.90;;;;;;5073548;28;20667;-71
2022/12/06 07:19:27;;;;;;;25.40;19.83;;;2.80;99.90;;;;;;5073440;28;20534;-71
2022/12/06 07:21:53;;;;;;;26.53;18.87;;;2.90;99.90;;;;;;5073311;28;20599;-71
2022/12/06 07:24:20;;;;;;;25.67;19.60;;;2.90;99.90;;;;;;5073170;28;20228;-71
2022/12/06 07:26:47;;;;;;;29.67;19.63;;;2.90;99.90;;;;;;5073194;28;20714;-71
2022/12/06 07:29:15;;;;;;;24.53;18.10;;;2.90;99.90;;;;;;5073048;28;20197;-71
2022/12/06 07:31:42;;;;;;;25.03;17.40;;;2.90;99.90;;;;;;5073575;28;20256;-71
2022/12/06 07:34:09;;;;;;;28.17;18.77;;;2.90;99.90;;;;;;5073038;28;20267;-71
2022/12/06 07:36:36;;;;;;;27.43;19.10;;;2.90;99.90;;;;;;5073157;28;20197;-71
2022/12/06 07:39:03;;;;;;;26.90;18.90;;;2.90;99.90;;;;;;5073177;28;20608;-71
2022/12/06 07:47:01;;;;;;;26.97;19.57;;;2.90;99.90;;;;;;5073152;28;20773;-71
2022/12/06 07:49:28;;;;;;;27.67;19.27;;;2.80;99.90;;;;;;5072966;28;20658;-71
2022/12/06 07:51:55;;;;;;;31.77;19.77;;;2.90;99.90;;;;;;5073259;28;20242;-71
2022/12/06 07:54:23;;;;;;;29.03;19.43;;;2.90;99.90;;;;;;5072860;28;20205;-71
2022/12/06 07:56:50;;;;;;;32.03;20.67;;;2.80;99.90;;;;;;5073258;28;20270;-71
2022/12/06 07:59:17;;;;;;;26.67;18.93;;;2.80;99.90;;;;;;5073105;28;20247;-71
2022/12/06 08:01:44;;;;;;;26.57;17.63;;;2.80;99.90;;;;;;5072969;28;20243;-71
2022/12/06 08:04:11;;;;;;;28.27;19.33;;;2.80;99.90;;;;;;5073095;28;20193;-71
2022/12/06 08:06:38;;;;;;;27.63;19.10;;;2.80;99.90;;;;;;5072930;28;20229;-72
2022/12/06 08:09:05;;;;;;;29.20;19.73;;;2.90;99.90;;;;;;5073263;28;20674;-71
2022/12/06 08:11:32;;;;;;;30.37;20.27;;;2.90;99.90;;;;;;5073261;28;20246;-71
2022/12/06 08:13:58;;;;;;;30.57;20.00;;;2.80;99.90;;;;;;5073194;28;20197;-71
2022/12/06 08:16:26;;;;;;;32.10;20.43;;;2.90;99.90;;;;;;5073474;28;20197;-72
2022/12/06 08:18:53;;;;;;;29.00;19.30;;;2.90;99.90;;;;;;5073098;28;20193;-71
2022/12/06 08:21:20;;;;;;;32.87;20.43;;;2.80;99.90;;;;;;5073247;28;20258;-71
2022/12/06 08:23:46;;;;;;;32.13;21.00;;;2.80;99.90;;;;;;5073271;28;20649;-71
2022/12/06 08:26:17;;;;;;;34.53;20.63;;;2.80;99.90;;;;;;5073307;28;20538;-71
2022/12/06 08:28:44;;;;;;;31.87;20.10;;;2.90;99.90;;;;;;5074671;28;20235;-71
2022/12/06 08:31:13;;;;;;;33.17;20.23;;;2.80;99.90;;;;;;5074155;28;20250;-71
2022/12/06 08:33:42;;;;;;;30.90;20.93;;;2.90;99.90;;;;;;5074445;28;20247;-71
2022/12/06 08:36:11;;;;;;;31.23;20.03;;;2.90;99.90;;;;;;5074175;28;20197;-71
2022/12/06 08:38:38;;;;;;;33.33;22.73;;;2.90;99.90;;;;;;5074459;28;20672;-72
2022/12/06 08:41:53;;;;;;;35.73;20.30;;;2.90;99.90;;;;;;5075079;28;20199;-72
2022/12/06 08:43:52;;;;;;;30.47;19.37;;;2.90;99.90;;;;;;5074760;28;20220;-74
2022/12/06 08:46:19;;;;;;;26.83;18.20;;;2.90;99.90;;;;;;5074769;28;20197;-72
2022/12/06 08:48:47;;;;;;;28.27;19.30;;;2.80;99.90;;;;;;5077903;28;20661;-72
2022/12/06 08:51:14;;;;;;;25.67;18.10;;;2.80;99.90;;;;;;5078181;28;20284;-72
2022/12/06 08:53:40;;;;;;;28.53;18.80;;;2.80;99.90;;;;;;5077591;28;20206;-72
2022/12/06 08:56:08;;;;;;;29.07;18.63;;;2.90;99.90;;;;;;5077331;28;20235;-72
2022/12/06 08:58:34;;;;;;;24.97;18.03;;;2.90;99.90;;;;;;5077075;28;20239;-72
2022/12/06 09:01:01;;;;;;;24.43;17.33;;;2.90;99.90;;;;;;5077274;28;20201;-71
2022/12/06 09:03:27;;;;;;;25.50;18.30;;;2.90;99.90;;;;;;5076749;28;20197;-72
2022/12/06 09:05:55;;;;;;;26.17;18.43;;;2.80;99.90;;;;;;5077129;28;20243;-71
2022/12/06 09:08:22;;;;;;;24.97;17.93;;;2.90;99.90;;;;;;5076732;28;20238;-71
2022/12/06 09:10:49;;;;;;;25.67;17.97;;;2.90;99.90;;;;;;5076284;28;20228;-72
2022/12/06 09:13:15;;;;;;;26.27;17.50;;;2.90;99.90;;;;;;5075659;28;20713;-72
2022/12/06 09:15:42;;;;;;;24.97;18.30;;;2.90;99.90;;;;;;5075927;28;20223;-72
2022/12/06 09:18:09;;;;;;;26.70;16.50;;;2.90;99.90;;;;;;5076076;28;20197;-72
2022/12/06 09:20:39;;;;;;;25.97;18.87;;;2.90;99.90;;;;;;5075952;28;20205;-71
2022/12/06 09:23:07;;;;;;;23.70;16.53;;;2.90;99.90;;;;;;5075999;28;20227;-72
2022/12/06 09:25:34;;;;;;;17.43;13.43;;;3.00;99.90;;;;;;5076190;28;20197;-71
2022/12/06 09:28:01;;;;;;;16.80;13.30;;;3.00;99.90;;;;;;5075768;28;20270;-71
2022/12/06 09:30:27;;;;;;;14.97;11.70;;;3.00;99.90;;;;;;5075894;28;20225;-72
2022/12/06 09:32:54;;;;;;;16.47;13.40;;;3.00;99.90;;;;;;5075844;28;20246;-71
2022/12/06 09:35:21;;;;;;;25.97;12.73;;;3.00;99.90;;;;;;5076047;28;20250;-72
2022/12/06 09:37:48;;;;;;;14.70;11.33;;;3.00;99.90;;;;;;5075857;28;20205;-71
2022/12/06 09:40:21;;;;;;;13.87;11.03;;;3.00;99.90;;;;;;5075387;28;20193;-72
2022/12/06 09:43:01;;;;;;;17.03;12.47;;;3.00;99.90;;;;;;5076026;28;20193;-72
2022/12/06 09:45:49;;;;;;;13.57;11.00;;;3.00;99.90;;;;;;5076107;28;20200;-72
2022/12/06 09:48:42;;;;;;;12.13;9.10;;;3.10;99.90;;;;;;5075405;28;20258;-73
2022/12/06 09:51:21;;;;;;;12.73;10.77;;;3.10;99.90;;;;;;5075879;28;20282;-71
2022/12/06 09:54:00;;;;;;;11.97;9.97;;;3.00;99.90;;;;;;5076699;28;20196;-72
2022/12/06 09:56:34;;;;;;;12.00;10.03;;;3.00;99.90;;;;;;5080676;28;20193;-72
2022/12/06 09:59:13;;;;;;;12.37;10.10;;;3.00;99.90;;;;;;5083128;28;20204;-72
2022/12/06 10:01:52;;;;;;;15.33;11.20;;;2.90;99.90;;;;;;5082610;28;20227;-71
2022/12/06 10:04:41;;;;;;;14.33;11.63;;;2.90;99.90;;;;;;5080786;28;20200;-71
2022/12/06 10:07:15;;;;;;;12.63;10.10;;;3.00;99.90;;;;;;5076999;28;20225;-71
2022/12/06 10:09:53;;;;;;;13.53;10.80;;;2.90;99.90;;;;;;5078829;28;20247;-72
2022/12/06 10:12:32;;;;;;;11.43;9.57;;;2.90;99.90;;;;;;5077454;28;20265;-71
2022/12/06 10:15:18;;;;;;;12.67;10.30;;;2.80;99.90;;;;;;5074717;28;20648;-71
2022/12/06 10:17:59;;;;;;;12.70;10.13;;;2.80;99.90;;;;;;5074512;28;20201;-71
2022/12/06 10:20:34;;;;;;;13.50;11.00;;;2.80;99.90;;;;;;5074658;28;20209;-71
2022/12/06 10:23:13;;;;;;;10.20;8.87;;;2.90;99.90;;;;;;5074450;28;20663;-71
2022/12/06 10:25:46;;;;;;;11.07;9.43;;;2.80;99.90;;;;;;5074372;28;20231;-71
2022/12/06 10:28:18;;;;;;;11.53;9.57;;;2.80;99.90;;;;;;5074324;28;20246;-70
2022/12/06 10:30:51;;;;;;;13.67;9.70;;;2.80;99.90;;;;;;5074119;28;20221;-71
2022/12/06 10:33:27;;;;;;;12.43;10.17;;;2.80;99.90;;;;;;5074356;28;20598;-71
2022/12/06 10:35:59;;;;;;;12.90;10.43;;;2.80;99.90;;;;;;5074266;28;20201;-71
2022/12/06 10:38:32;;;;;;;13.47;9.90;;;2.90;99.90;;;;;;5074036;28;20251;-71
2022/12/06 10:41:06;;;;;;;13.20;10.23;;;2.90;99.90;;;;;;5074120;28;20250;-71
2022/12/06 10:43:43;;;;;;;12.10;10.03;;;2.90;99.90;;;;;;5074601;28;20559;-71
2022/12/06 10:49:06;;;;;;;13.47;10.03;;;2.90;99.90;;;;;;5077106;28;20674;-72
2022/12/06 10:51:39;;;;;;;13.63;10.33;;;2.90;99.90;;;;;;5081648;28;20221;-72
2022/12/06 10:54:18;;;;;;;18.50;10.10;;;2.90;99.90;;;;;;5080836;28;20200;-75
2022/12/06 10:56:48;;;;;;;9.83;8.30;;;3.00;99.90;;;;;;5079320;28;20230;-71
2022/12/06 10:59:25;;;;;;;12.30;8.70;;;2.90;99.90;;;;;;5074298;28;20597;-71
2022/12/06 11:01:54;;;;;;;10.13;8.20;;;2.90;99.90;;;;;;5073984;28;20200;-71
2022/12/06 11:04:24;;;;;;;9.37;7.13;;;2.90;99.90;;;;;;5074248;28;20259;-71
2022/12/06 11:06:56;;;;;;;10.73;7.40;;;2.90;99.90;;;;;;5073301;28;20224;-71
2022/12/06 11:09:30;;;;;;;7.90;6.67;;;3.00;99.90;;;;;;5073637;28;20212;-70
2022/12/06 11:11:57;;;;;;;7.17;5.47;;;2.90;99.90;;;;;;5074688;28;20251;-71
2022/12/06 11:14:30;;;;;;;8.20;6.20;;;2.90;99.90;;;;;;5074510;28;20204;-71
2022/12/06 11:17:03;;;;;;;8.03;6.03;;;2.80;99.90;;;;;;5074039;28;20201;-71
2022/12/06 11:19:35;;;;;;;8.70;6.70;;;2.80;99.90;;;;;;5074684;28;20204;-72
2022/12/06 11:22:11;;;;;;;9.63;6.40;;;2.80;99.90;;;;;;5075097;28;20205;-71
2022/12/06 11:24:44;;;;;;;10.07;7.43;;;2.80;99.90;;;;;;5073856;28;20196;-71
2022/12/06 11:27:15;;;;;;;9.73;6.90;;;2.90;99.90;;;;;;5073781;28;20197;-71
2022/12/06 11:29:47;;;;;;;7.50;6.03;;;2.90;99.90;;;;;;5073447;28;20205;-71
2022/12/06 11:32:16;;;;;;;9.33;6.67;;;2.90;99.90;;;;;;5073745;28;20221;-72
2022/12/06 11:34:47;;;;;;;9.30;6.97;;;2.90;99.90;;;;;;5073968;28;20251;-72
2022/12/06 11:37:16;;;;;;;9.40;7.50;;;2.90;99.90;;;;;;5073963;28;20211;-71
2022/12/06 11:39:44;;;;;;;11.50;8.20;;;2.90;99.90;;;;;;5073606;28;20197;-71
2022/12/06 11:42:14;;;;;;;7.07;5.80;;;2.90;99.90;;;;;;5073619;28;20721;-71
2022/12/06 11:44:45;;;;;;;5.70;4.80;;;2.90;99.90;;;;;;5073835;28;20201;-71
2022/12/06 11:47:17;;;;;;;5.63;4.50;;;2.90;99.90;;;;;;5073874;28;20596;-71
2022/12/06 11:49:45;;;;;;;4.87;3.80;;;2.90;99.90;;;;;;5073942;28;20197;-71
2022/12/06 11:52:17;;;;;;;6.23;4.93;;;2.80;99.90;;;;;;5073653;28;20276;-71
2022/12/06 11:54:49;;;;;;;5.73;4.50;;;2.80;99.90;;;;;;5073833;28;20251;-72
2022/12/06 11:57:20;;;;;;;6.73;4.60;;;2.90;99.90;;;;;;5074193;28;20254;-73
2022/12/06 12:00:11;;;;;;;5.50;4.03;;;2.80;99.90;;;;;;5073450;28;20598;-72
2022/12/06 12:02:38;;;;;;;5.67;4.50;;;2.80;99.90;;;;;;5073576;28;20235;-71
2022/12/06 12:05:10;;;;;;;5.77;4.40;;;2.80;99.90;;;;;;5073682;28;20201;-71
2022/12/06 12:07:39;;;;;;;6.80;4.43;;;2.80;99.90;;;;;;5073894;28;20232;-71
2022/12/06 12:10:26;;;;;;;8.10;5.43;;;2.80;99.90;;;;;;5074274;28;20718;-72
2022/12/06 12:15:47;;;;;;;6.63;5.13;;;2.80;99.90;;;;;;5073797;28;20200;-71
2022/12/06 12:18:22;;;;;;;8.37;5.33;;;2.80;99.90;;;;;;5073461;28;20258;-71
2022/12/06 12:20:49;;;;;;;6.83;5.50;;;2.80;99.90;;;;;;5074570;28;20659;-71
2022/12/06 12:23:19;;;;;;;7.87;5.37;;;2.80;99.90;;;;;;5077185;28;20262;-71
2022/12/06 12:25:59;;;;;;;8.07;5.83;;;2.80;99.90;;;;;;5077159;28;20737;-72
2022/12/06 12:28:28;;;;;;;7.30;5.50;;;2.80;99.90;;;;;;5077427;28;20284;-71
2022/12/06 12:30:57;;;;;;;8.37;5.60;;;2.80;99.90;;;;;;5077378;28;20251;-72
2022/12/06 12:33:24;;;;;;;6.90;5.40;;;2.80;99.90;;;;;;5077239;28;20201;-72
2022/12/06 12:35:55;;;;;;;9.13;6.40;;;2.80;99.90;;;;;;5076952;28;20220;-72
2022/12/06 12:38:31;;;;;;;55.67;29.83;;;2.80;99.90;;;;;;5076795;28;20644;-72
2022/12/06 12:41:01;;;;;;;19.87;13.67;;;2.80;99.90;;;;;;5076556;28;20242;-71
2022/12/06 12:43:31;;;;;;;12.00;8.93;;;2.90;99.90;;;;;;5076679;28;20299;-70
2022/12/06 12:46:16;;;;;;;10.43;8.30;;;2.80;99.90;;;;;;5076684;28;20330;-70
2022/12/06 12:48:45;;;;;;;10.20;8.83;;;2.90;99.90;;;;;;5076736;28;20207;-71
2022/12/06 12:51:26;;;;;;;9.90;8.20;;;2.90;99.90;;;;;;5076383;28;20221;-72
2022/12/06 12:53:55;;;;;;;10.63;8.47;;;2.80;99.90;;;;;;5076434;28;20200;-71
2022/12/06 12:56:23;;;;;;;13.83;8.67;;;2.90;99.90;;;;;;5076110;28;20200;-70
2022/12/06 12:58:52;;;;;;;10.93;8.80;;;2.90;99.90;;;;;;5076330;28;20201;-71
2022/12/06 13:01:29;;;;;;;10.83;8.93;;;2.80;99.90;;;;;;5076597;28;20572;-71
2022/12/06 13:04:00;;;;;;;13.87;10.37;;;2.80;99.90;;;;;;5076132;28;20270;-71
2022/12/06 13:06:31;;;;;;;11.97;9.47;;;2.80;99.90;;;;;;5076102;28;20201;-71
2022/12/06 13:09:02;;;;;;;13.63;10.53;;;2.80;99.90;;;;;;5076093;28;20223;-71
2022/12/06 13:11:31;;;;;;;14.40;10.70;;;2.70;99.90;;;;;;5076310;28;20557;-71
2022/12/06 13:13:59;;;;;;;13.00;10.33;;;2.80;99.90;;;;;;5076152;28;20718;-71
2022/12/06 13:16:30;;;;;;;12.10;10.43;;;2.80;99.90;;;;;;5075948;28;20201;-71
2022/12/06 13:18:58;;;;;;;13.57;11.13;;;2.80;99.90;;;;;;5075993;28;20540;-71
2022/12/06 13:21:31;;;;;;;13.93;11.37;;;2.70;99.90;;;;;;5075850;28;20228;-71